createdAt,value
2023-10-31T00:01:34.927Z,4.13
2023-10-31T00:04:03.319Z,3.53
2023-10-31T00:06:31.659Z,3.50
2023-10-31T00:09:00.057Z,3.33
2023-10-31T00:11:28.450Z,3.60
2023-10-31T00:13:56.846Z,3.07
2023-10-31T00:16:26.709Z,3.70
2023-10-31T00:18:55.146Z,4.63
2023-10-31T00:21:23.589Z,4.50
2023-10-31T00:23:51.973Z,4.53
2023-10-31T00:26:20.440Z,4.00
2023-10-31T00:28:55.583Z,3.53
2023-10-31T00:31:24.002Z,3.50
2023-10-31T00:33:53.812Z,3.07
2023-10-31T00:36:22.373Z,3.37
2023-10-31T00:38:50.711Z,2.90
2023-10-31T00:41:19.120Z,3.00
2023-10-31T00:43:47.570Z,2.80
2023-10-31T00:46:16.308Z,3.07
2023-10-31T00:48:44.655Z,2.83
2023-10-31T00:51:14.435Z,3.07
2023-10-31T00:53:42.877Z,3.00
2023-10-31T00:56:11.358Z,2.80
2023-10-31T00:58:39.801Z,2.90
2023-10-31T01:01:09.300Z,3.70
2023-10-31T01:03:38.456Z,4.40
2023-10-31T01:06:07.745Z,4.50
2023-10-31T01:08:37.759Z,4.70
2023-10-31T01:11:06.207Z,4.20
2023-10-31T01:13:35.403Z,4.67
2023-10-31T01:16:04.058Z,4.23
2023-10-31T01:18:33.215Z,4.10
2023-10-31T01:21:02.218Z,4.23
2023-10-31T01:23:30.604Z,3.60
2023-10-31T01:26:01.232Z,4.17
2023-10-31T01:28:29.629Z,4.17
2023-10-31T01:30:58.061Z,3.73
2023-10-31T01:33:27.042Z,3.80
2023-10-31T01:35:55.527Z,3.77
2023-10-31T01:38:23.857Z,3.60
2023-10-31T01:40:52.910Z,3.33
2023-10-31T01:43:36.144Z,3.30
2023-10-31T01:46:05.404Z,2.87
2023-10-31T01:48:35.076Z,3.10
2023-10-31T01:51:06.209Z,3.13
2023-10-31T01:53:36.144Z,2.80
2023-10-31T01:56:06.205Z,2.90
2023-10-31T01:58:37.757Z,3.40
2023-10-31T02:01:07.786Z,2.73
2023-10-31T02:03:36.536Z,3.20
2023-10-31T02:06:05.865Z,2.60
2023-10-31T02:08:34.579Z,3.03
2023-10-31T02:11:03.051Z,2.93
2023-10-31T02:13:31.505Z,3.40
2023-10-31T02:16:01.516Z,3.03
2023-10-31T02:18:30.322Z,3.40
2023-10-31T02:21:00.016Z,3.10
2023-10-31T02:23:30.503Z,3.47
2023-10-31T02:25:59.806Z,2.73
2023-10-31T02:28:29.143Z,3.17
2023-10-31T02:30:57.726Z,3.00
2023-10-31T02:33:26.378Z,2.97
2023-10-31T02:35:54.819Z,3.37
2023-10-31T02:38:23.267Z,3.50
2023-10-31T02:40:54.380Z,3.43
2023-10-31T02:43:23.172Z,3.27
2023-10-31T02:45:51.544Z,3.23
2023-10-31T02:48:21.457Z,3.73
2023-10-31T02:50:49.876Z,3.63
2023-10-31T02:53:18.264Z,3.57
2023-10-31T02:55:46.791Z,3.77
2023-10-31T02:58:18.312Z,3.20
2023-10-31T03:00:46.778Z,3.10
2023-10-31T03:03:15.363Z,3.57
2023-10-31T03:05:43.764Z,3.37
2023-10-31T03:08:13.481Z,2.83
2023-10-31T03:10:43.331Z,3.27
2023-10-31T03:13:11.746Z,2.70
2023-10-31T03:15:41.530Z,2.97
2023-10-31T03:18:09.975Z,3.00
2023-10-31T03:20:38.363Z,3.30
2023-10-31T03:23:06.721Z,2.77
2023-10-31T03:25:35.176Z,3.13
2023-10-31T03:28:03.972Z,3.30
2023-10-31T03:30:32.342Z,3.30
2023-10-31T03:33:02.732Z,3.43
2023-10-31T03:35:31.781Z,3.17
2023-10-31T03:38:00.314Z,2.60
2023-10-31T03:40:28.700Z,3.10
2023-10-31T03:42:57.136Z,2.80
2023-10-31T03:45:25.548Z,3.30
2023-10-31T03:47:54.131Z,2.83
2023-10-31T03:50:24.087Z,2.97
2023-10-31T03:52:52.517Z,3.17
2023-10-31T03:55:21.212Z,2.70
2023-10-31T03:57:49.598Z,2.50
2023-10-31T04:00:18.883Z,2.30
2023-10-31T04:02:47.539Z,2.50
2023-10-31T04:05:17.218Z,2.60
2023-10-31T04:07:47.942Z,2.90
2023-10-31T04:10:16.580Z,2.70
2023-10-31T04:12:44.952Z,2.47
2023-10-31T04:15:13.263Z,2.77
2023-10-31T04:17:41.765Z,2.47
2023-10-31T04:20:10.849Z,2.50
2023-10-31T04:22:39.230Z,2.40
2023-10-31T04:25:09.855Z,2.40
2023-10-31T04:27:38.183Z,2.37
2023-10-31T04:30:07.486Z,1.80
2023-10-31T04:32:35.861Z,2.10
2023-10-31T04:35:04.513Z,2.20
2023-10-31T04:37:35.354Z,2.13
2023-10-31T04:40:04.192Z,2.00
2023-10-31T04:42:34.550Z,2.20
2023-10-31T04:45:03.109Z,2.13
2023-10-31T04:47:33.309Z,2.30
2023-10-31T04:50:01.964Z,2.40
2023-10-31T04:52:30.418Z,2.27
2023-10-31T04:54:58.765Z,2.03
2023-10-31T04:57:27.153Z,2.33
2023-10-31T04:59:58.687Z,2.23
2023-10-31T05:02:27.224Z,2.00
2023-10-31T05:04:55.714Z,2.00
2023-10-31T05:07:24.116Z,1.80
2023-10-31T05:09:52.518Z,1.87
2023-10-31T05:12:20.878Z,1.87
2023-10-31T05:14:49.156Z,1.90
2023-10-31T05:17:19.008Z,2.20
2023-10-31T05:19:47.351Z,1.93
2023-10-31T05:22:15.729Z,2.00
2023-10-31T05:24:44.064Z,2.00
2023-10-31T05:27:12.418Z,1.70
2023-10-31T05:29:41.322Z,1.70
2023-10-31T05:32:10.193Z,1.83
2023-10-31T05:34:39.938Z,1.70
2023-10-31T05:37:08.394Z,2.00
2023-10-31T05:39:37.937Z,2.00
2023-10-31T05:42:06.522Z,2.20
2023-10-31T05:44:34.854Z,2.40
2023-10-31T05:47:03.287Z,3.20
2023-10-31T05:49:32.282Z,2.47
2023-10-31T05:52:02.123Z,2.50
2023-10-31T05:54:30.578Z,3.23
2023-10-31T05:56:58.967Z,3.20
2023-10-31T05:59:27.435Z,3.20
2023-10-31T06:01:55.838Z,2.40
2023-10-31T06:04:26.011Z,2.40
2023-10-31T06:06:54.489Z,2.40
2023-10-31T06:09:24.220Z,2.13
2023-10-31T06:11:52.604Z,4.93
2023-10-31T06:14:21.022Z,2.70
2023-10-31T06:16:49.526Z,2.97
2023-10-31T06:19:17.921Z,2.80
2023-10-31T06:21:46.296Z,5.30
2023-10-31T06:24:14.901Z,6.53
2023-10-31T06:26:44.666Z,11.83
2023-10-31T06:29:37.023Z,15.67
2023-10-31T06:32:02.514Z,18.13
2023-10-31T06:34:31.021Z,17.33
2023-10-31T06:36:59.391Z,12.63
2023-10-31T06:39:27.676Z,6.70
2023-10-31T06:41:58.304Z,4.27
2023-10-31T06:44:27.932Z,3.20
2023-10-31T06:54:14.958Z,4.97
2023-10-31T06:57:39.769Z,3.23
2023-10-31T07:01:06.184Z,2.03
2023-10-31T07:09:24.532Z,2.33
2023-10-31T07:20:33.092Z,3.00
2023-10-31T07:23:04.738Z,2.70
2023-10-31T07:26:06.987Z,2.33
2023-10-31T07:29:31.248Z,2.37
2023-10-31T07:32:18.194Z,2.43
2023-10-31T07:35:28.356Z,2.27
2023-10-31T07:38:06.746Z,2.20
2023-10-31T07:40:55.383Z,3.07
2023-10-31T07:43:57.272Z,2.80
2023-10-31T07:46:32.732Z,2.53
2023-10-31T07:49:01.388Z,2.23
2023-10-31T07:51:30.069Z,2.63
2023-10-31T07:53:59.436Z,2.53
2023-10-31T07:56:28.276Z,2.70
2023-10-31T07:58:59.760Z,2.63
2023-10-31T08:01:34.049Z,2.47
2023-10-31T08:04:20.955Z,2.80
2023-10-31T08:07:31.194Z,2.93
2023-10-31T08:10:19.454Z,3.43
2023-10-31T08:13:17.447Z,3.40
2023-10-31T08:16:07.684Z,2.93
2023-10-31T08:18:56.196Z,3.20
2023-10-31T22:35:10.712Z,3.93
2023-10-31T22:37:39.178Z,3.70
2023-10-31T22:40:09.099Z,3.53
2023-10-31T22:42:38.006Z,3.33
2023-10-31T22:45:07.705Z,3.20
2023-10-31T22:47:39.780Z,3.40
2023-10-31T22:50:12.032Z,3.40
2023-10-31T22:52:40.558Z,3.10
2023-10-31T22:55:10.194Z,3.50
2023-10-31T22:57:40.124Z,3.53
2023-10-31T23:00:21.725Z,3.13
2023-10-31T23:02:50.182Z,3.60
2023-10-31T23:05:20.159Z,2.90
2023-10-31T23:07:53.637Z,3.30
2023-10-31T23:10:25.616Z,3.00
2023-10-31T23:12:54.059Z,3.93
2023-10-31T23:15:22.578Z,3.30
2023-10-31T23:17:54.070Z,3.80
2023-10-31T23:20:24.062Z,2.87
2023-10-31T23:22:53.229Z,3.67
2023-10-31T23:25:21.788Z,3.20
2023-10-31T23:27:50.167Z,2.93
2023-10-31T23:30:18.665Z,3.50
2023-10-31T23:32:47.066Z,3.33
2023-10-31T23:35:16.177Z,3.10
2023-10-31T23:37:50.327Z,3.33
2023-10-31T23:40:20.292Z,3.50
2023-10-31T23:42:48.635Z,3.60
2023-10-31T23:45:17.000Z,3.57
2023-10-31T23:47:45.432Z,3.33
2023-10-31T23:50:13.835Z,3.40
2023-10-31T23:52:42.207Z,3.40
2023-10-31T23:55:11.955Z,3.63
2023-10-31T23:57:40.262Z,3.37
